createdAt,value
2018-09-01T00:01:26.178Z,14.52
2018-09-01T00:03:53.788Z,14.53
2018-09-01T00:06:22.328Z,14.41
2018-09-01T00:08:54.165Z,14.36
2018-09-01T00:11:21.748Z,14.23
2018-09-01T00:13:49.371Z,14.26
2018-09-01T00:16:16.880Z,14.31
2018-09-01T00:18:44.434Z,14.25
2018-09-01T00:21:11.994Z,14.00
2018-09-01T00:23:39.543Z,13.84
2018-09-01T00:26:07.088Z,13.74
2018-09-01T00:28:34.664Z,13.88
2018-09-01T00:31:02.200Z,13.78
2018-09-01T00:33:29.772Z,13.87
2018-09-01T00:35:57.307Z,14.05
2018-09-01T00:38:24.890Z,14.07
2018-09-01T00:40:52.523Z,13.97
2018-09-01T00:43:20.075Z,13.86
2018-09-01T00:45:47.683Z,13.88
2018-09-01T00:48:15.361Z,13.85
2018-09-01T00:50:42.940Z,13.85
2018-09-01T00:53:10.577Z,13.75
2018-09-01T00:55:38.193Z,13.62
2018-09-01T00:58:05.757Z,13.77
2018-09-01T01:00:33.285Z,13.71
2018-09-01T01:03:00.849Z,13.78
2018-09-01T01:05:28.469Z,13.89
2018-09-01T01:07:55.979Z,13.78
2018-09-01T01:10:23.576Z,13.71
2018-09-01T01:12:51.131Z,13.63
2018-09-01T01:15:18.657Z,13.55
2018-09-01T01:17:46.215Z,13.61
2018-09-01T01:20:13.741Z,13.73
2018-09-01T01:22:41.299Z,13.57
2018-09-01T01:25:08.807Z,13.52
2018-09-01T01:27:36.375Z,13.38
2018-09-01T01:30:03.914Z,13.32
2018-09-01T01:32:34.843Z,13.60
2018-09-01T01:35:02.453Z,13.57
2018-09-01T01:37:30.025Z,13.66
2018-09-01T01:39:57.654Z,13.70
2018-09-01T01:42:25.439Z,13.84
2018-09-01T01:44:52.969Z,13.65
2018-09-01T01:47:20.539Z,13.60
2018-09-01T01:49:48.084Z,13.46
2018-09-01T01:52:15.650Z,13.34
2018-09-01T01:54:43.213Z,13.59
2018-09-01T01:57:10.746Z,13.61
2018-09-01T01:59:38.456Z,13.70
2018-09-01T02:02:06.010Z,13.52
2018-09-01T02:04:33.585Z,13.50
2018-09-01T02:07:01.113Z,13.63
2018-09-01T02:09:28.691Z,13.52
2018-09-01T02:11:56.211Z,13.24
2018-09-01T02:14:23.803Z,13.41
2018-09-01T02:16:51.390Z,13.41
2018-09-01T02:19:18.980Z,13.22
2018-09-01T02:21:46.568Z,13.15
2018-09-01T02:24:14.109Z,13.45
2018-09-01T02:26:41.674Z,13.28
2018-09-01T02:29:09.267Z,13.32
2018-09-01T02:31:36.793Z,13.56
2018-09-01T02:34:04.327Z,13.62
2018-09-01T02:36:31.897Z,13.62
2018-09-01T02:39:06.611Z,13.55
2018-09-01T02:41:34.206Z,13.46
2018-09-01T02:44:01.800Z,13.57
2018-09-01T02:46:29.332Z,13.40
2018-09-01T02:49:00.817Z,13.64
2018-09-01T02:51:28.355Z,13.88
2018-09-01T02:53:55.901Z,14.12
2018-09-01T02:56:23.494Z,14.32
2018-09-01T02:58:51.269Z,14.43
2018-09-01T03:01:18.792Z,14.51
2018-09-01T03:03:50.177Z,14.56
2018-09-01T03:06:17.720Z,14.40
2018-09-01T03:08:45.367Z,14.28
2018-09-01T03:11:12.947Z,14.16
2018-09-01T03:13:40.524Z,14.34
2018-09-01T03:16:11.454Z,14.49
2018-09-01T03:18:38.963Z,14.59
2018-09-01T03:21:06.541Z,14.49
2018-09-01T03:23:34.078Z,13.73
2018-09-01T03:26:01.650Z,13.66
2018-09-01T03:28:29.171Z,13.54
2018-09-01T03:30:56.712Z,14.01
2018-09-01T03:33:24.254Z,14.06
2018-09-01T03:35:51.835Z,13.80
2018-09-01T03:38:19.400Z,13.94
2018-09-01T03:40:46.947Z,13.73
2018-09-01T03:43:26.865Z,13.84
2018-09-01T03:45:54.450Z,13.92
2018-09-01T03:48:22.025Z,13.95
2018-09-01T03:50:49.574Z,13.89
2018-09-01T03:53:17.177Z,13.63
2018-09-01T03:55:44.705Z,13.25
2018-09-01T03:58:12.280Z,13.50
2018-09-01T04:00:39.854Z,13.40
2018-09-01T04:03:07.384Z,13.39
2018-09-01T04:05:34.945Z,13.38
2018-09-01T04:08:02.461Z,13.54
2018-09-01T04:10:30.075Z,13.38
2018-09-01T04:12:57.647Z,13.67
2018-09-01T04:15:25.178Z,13.95
2018-09-01T04:17:52.770Z,14.12
2018-09-01T04:20:20.287Z,14.06
2018-09-01T04:22:47.812Z,13.79
2018-09-01T04:25:15.405Z,13.56
2018-09-01T04:27:42.919Z,13.53
2018-09-01T04:30:10.436Z,13.68
2018-09-01T04:32:37.992Z,13.70
2018-09-01T04:35:07.672Z,13.36
2018-09-01T04:37:35.197Z,13.44
2018-09-01T04:40:02.813Z,13.51
2018-09-01T04:42:30.375Z,13.78
2018-09-01T04:44:57.913Z,13.97
2018-09-01T04:47:25.442Z,14.09
2018-09-01T04:49:53.349Z,14.20
2018-09-01T04:52:20.900Z,14.14
2018-09-01T04:54:48.481Z,13.56
2018-09-01T04:57:16.025Z,13.80
2018-09-01T04:59:43.616Z,13.76
2018-09-01T05:02:11.145Z,13.43
2018-09-01T05:04:38.726Z,13.10
2018-09-01T05:07:06.254Z,13.21
2018-09-01T05:09:33.863Z,13.27
2018-09-01T05:12:01.408Z,13.22
2018-09-01T05:14:28.976Z,13.24
2018-09-01T05:16:56.510Z,13.21
2018-09-01T05:19:24.083Z,13.38
2018-09-01T05:21:51.633Z,13.34
2018-09-01T05:24:19.180Z,13.60
2018-09-01T05:26:46.768Z,13.75
2018-09-01T05:29:18.179Z,13.94
2018-09-01T05:31:45.766Z,14.08
2018-09-01T05:34:13.294Z,14.14
2018-09-01T05:36:40.950Z,14.16
2018-09-01T05:39:10.527Z,14.29
2018-09-01T05:41:38.121Z,14.39
2018-09-01T05:44:05.693Z,14.51
2018-09-01T05:46:33.242Z,14.47
2018-09-01T05:49:00.846Z,14.60
2018-09-01T05:51:28.401Z,14.63
2018-09-01T05:53:56.171Z,14.70
2018-09-01T05:56:23.752Z,14.65
2018-09-01T05:58:51.300Z,14.66
2018-09-01T06:01:18.875Z,14.59
2018-09-01T06:03:46.411Z,14.60
2018-09-01T06:06:14.047Z,14.62
2018-09-01T06:08:41.582Z,14.65
2018-09-01T06:11:09.129Z,14.65
2018-09-01T06:13:36.763Z,14.65
2018-09-01T06:16:04.341Z,14.66
2018-09-01T06:18:31.867Z,14.73
2018-09-01T06:20:59.442Z,14.75
2018-09-01T06:23:27.012Z,14.80
2018-09-01T06:25:54.714Z,14.82
2018-09-01T06:28:22.286Z,14.77
2018-09-01T06:30:50.882Z,14.80
2018-09-01T06:33:18.470Z,14.83
2018-09-01T06:35:46.099Z,14.85
2018-09-01T06:38:13.940Z,14.89
2018-09-01T06:40:42.007Z,14.96
2018-09-01T06:43:09.747Z,14.96
2018-09-01T06:45:37.195Z,15.03
2018-09-01T06:48:04.776Z,15.04
2018-09-01T06:50:32.547Z,15.12
2018-09-01T06:53:00.157Z,15.12
2018-09-01T06:55:27.882Z,15.15
2018-09-01T06:58:02.453Z,15.24
2018-09-01T07:00:30.586Z,15.32
2018-09-01T07:02:58.561Z,15.37
2018-09-01T07:05:27.674Z,15.45
2018-09-01T07:07:55.713Z,15.48
2018-09-01T07:10:23.577Z,15.57
2018-09-01T07:12:51.379Z,15.61
2018-09-01T07:15:19.077Z,15.71
2018-09-01T07:17:46.653Z,15.72
2018-09-01T07:20:14.186Z,15.82
2018-09-01T07:22:41.786Z,15.84
2018-09-01T07:25:09.327Z,15.92
2018-09-01T07:27:36.918Z,15.89
2018-09-01T07:30:04.498Z,15.99
2018-09-01T07:32:32.010Z,16.04
2018-09-01T07:34:59.589Z,16.08
2018-09-01T07:37:28.075Z,16.14
2018-09-01T07:39:55.662Z,16.17
2018-09-01T07:42:23.206Z,16.27
2018-09-01T07:44:50.908Z,16.30
2018-09-01T07:47:18.453Z,16.33
2018-09-01T07:49:46.017Z,16.37
2018-09-01T07:52:13.574Z,16.41
2018-09-01T07:54:43.209Z,16.42
2018-09-01T07:57:11.857Z,16.41
2018-09-01T07:59:41.468Z,16.45
2018-09-01T08:02:10.151Z,16.49
2018-09-01T08:04:37.862Z,16.57
2018-09-01T08:07:07.639Z,16.43
2018-09-01T08:09:35.645Z,16.60
2018-09-01T08:12:03.383Z,16.61
2018-09-01T08:14:31.199Z,16.70
2018-09-01T08:16:58.956Z,16.74
2018-09-01T08:19:26.523Z,16.80
2018-09-01T08:21:54.221Z,16.84
2018-09-01T08:24:22.952Z,16.76
2018-09-01T08:26:50.563Z,16.85
2018-09-01T08:29:18.527Z,16.97
2018-09-01T08:31:46.188Z,16.78
2018-09-01T08:34:13.764Z,16.97
2018-09-01T08:36:41.865Z,17.01
2018-09-01T08:39:09.530Z,17.07
2018-09-01T08:41:37.268Z,17.05
2018-09-01T08:44:05.036Z,17.21
2018-09-01T08:46:32.617Z,17.12
2018-09-01T08:49:00.390Z,17.22
2018-09-01T08:51:27.974Z,17.25
2018-09-01T08:53:55.630Z,17.32
2018-09-01T08:56:23.547Z,17.31
2018-09-01T08:58:51.141Z,17.38
2018-09-01T09:01:18.803Z,17.46
2018-09-01T09:03:46.580Z,17.47
2018-09-01T09:06:14.211Z,17.51
2018-09-01T09:08:41.892Z,17.55
2018-09-01T09:11:09.481Z,17.50
2018-09-01T09:13:37.110Z,17.52
2018-09-01T09:16:04.743Z,17.58
2018-09-01T09:18:32.488Z,17.59
2018-09-01T09:21:00.262Z,17.61
2018-09-01T09:23:29.865Z,17.61
2018-09-01T09:25:57.514Z,17.52
2018-09-01T09:28:25.080Z,17.71
2018-09-01T09:30:52.781Z,17.72
2018-09-01T09:33:20.401Z,17.78
2018-09-01T09:35:48.012Z,17.87
2018-09-01T09:38:15.597Z,17.93
2018-09-01T09:40:43.138Z,18.02
2018-09-01T09:43:12.869Z,18.02
2018-09-01T09:45:40.456Z,18.03
2018-09-01T09:48:07.994Z,18.15
2018-09-01T09:50:35.541Z,18.13
2018-09-01T09:53:05.252Z,18.07
2018-09-01T09:55:32.727Z,17.77
2018-09-01T09:58:00.271Z,17.88
2018-09-01T10:00:27.844Z,17.81
2018-09-01T10:02:55.355Z,17.89
2018-09-01T10:05:24.986Z,17.95
2018-09-01T10:07:52.509Z,18.00
2018-09-01T10:10:20.109Z,18.07
2018-09-01T10:12:47.634Z,18.12
2018-09-01T10:15:15.219Z,18.13
2018-09-01T10:17:42.819Z,18.17
2018-09-01T10:20:12.486Z,18.26
2018-09-01T10:22:40.009Z,18.35
2018-09-01T10:25:07.597Z,18.42
2018-09-01T10:27:40.665Z,18.53
2018-09-01T10:30:08.226Z,18.56
2018-09-01T10:32:35.902Z,18.68
2018-09-01T10:35:07.027Z,18.71
2018-09-01T10:37:34.579Z,18.71
2018-09-01T10:40:02.133Z,18.79
2018-09-01T10:42:35.257Z,18.74
2018-09-01T10:45:02.805Z,18.81
2018-09-01T10:47:30.494Z,18.84
2018-09-01T10:49:58.023Z,18.93
2018-09-01T10:52:25.573Z,18.98
2018-09-01T10:54:53.176Z,19.03
2018-09-01T10:57:20.773Z,19.09
2018-09-01T10:59:48.370Z,18.92
2018-09-01T11:02:15.921Z,18.69
2018-09-01T11:04:45.463Z,18.89
2018-09-01T11:07:12.990Z,18.97
2018-09-01T11:09:40.557Z,18.93
2018-09-01T11:12:08.094Z,19.01
2018-09-01T11:14:35.676Z,19.11
2018-09-01T11:17:03.271Z,19.08
2018-09-01T11:19:30.835Z,18.86
2018-09-01T11:21:58.418Z,18.86
2018-09-01T11:24:25.981Z,18.65
2018-09-01T11:26:53.514Z,18.56
2018-09-01T11:29:21.114Z,18.76
2018-09-01T11:31:48.650Z,18.73
2018-09-01T11:34:16.178Z,18.70
2018-09-01T11:36:45.796Z,18.79
2018-09-01T11:39:13.355Z,18.83
2018-09-01T11:41:40.897Z,18.84
2018-09-01T11:44:08.486Z,18.82
2018-09-01T11:46:36.068Z,18.78
2018-09-01T11:49:03.616Z,18.89
2018-09-01T11:51:31.199Z,18.83
2018-09-01T11:53:58.768Z,18.83
2018-09-01T11:56:26.344Z,19.02
2018-09-01T11:58:53.929Z,19.11
2018-09-01T12:01:21.614Z,19.13
2018-09-01T12:03:49.219Z,19.20
2018-09-01T12:06:16.738Z,19.28
2018-09-01T12:08:44.332Z,19.30
2018-09-01T12:11:11.864Z,19.37
2018-09-01T12:13:39.555Z,19.34
2018-09-01T12:16:07.129Z,19.10
2018-09-01T12:18:34.706Z,19.31
2018-09-01T12:21:04.387Z,19.42
2018-09-01T12:23:31.971Z,19.42
2018-09-01T12:25:59.565Z,19.35
2018-09-01T12:28:27.211Z,19.20
2018-09-01T12:30:54.805Z,19.38
2018-09-01T12:33:22.319Z,19.29
2018-09-01T12:35:49.899Z,19.29
2018-09-01T12:38:17.512Z,19.33
2018-09-01T12:40:45.064Z,19.28
2018-09-01T12:43:12.736Z,19.37
2018-09-01T12:45:40.265Z,19.43
2018-09-01T12:48:07.978Z,19.52
2018-09-01T12:50:36.616Z,19.46
2018-09-01T12:53:04.250Z,19.46
2018-09-01T12:55:31.851Z,19.59
2018-09-01T12:58:02.778Z,19.61
2018-09-01T13:00:30.388Z,19.67
2018-09-01T13:02:57.941Z,19.77
2018-09-01T13:05:28.786Z,19.79
2018-09-01T13:07:56.500Z,19.80
2018-09-01T13:10:24.262Z,19.69
2018-09-01T13:12:51.942Z,19.71
2018-09-01T13:15:19.495Z,19.60
2018-09-01T13:17:47.087Z,19.59
2018-09-01T13:20:14.623Z,19.61
2018-09-01T13:22:42.255Z,19.58
2018-09-01T13:25:09.888Z,19.58
2018-09-01T13:27:42.652Z,19.60
2018-09-01T13:30:10.431Z,19.56
2018-09-01T13:32:39.088Z,19.53
2018-09-01T13:35:06.654Z,19.74
2018-09-01T13:37:34.184Z,19.77
2018-09-01T13:40:01.953Z,19.80
2018-09-01T13:42:29.519Z,19.85
2018-09-01T13:44:58.241Z,19.88
2018-09-01T13:47:25.784Z,19.95
2018-09-01T13:49:53.523Z,19.92
2018-09-01T13:52:21.093Z,19.86
2018-09-01T13:54:48.675Z,19.96
2018-09-01T13:57:16.305Z,19.87
2018-09-01T13:59:43.841Z,19.99
2018-09-01T14:02:11.403Z,20.00
2018-09-01T14:04:38.946Z,20.07
2018-09-01T14:07:06.702Z,20.29
2018-09-01T14:09:42.948Z,20.27
2018-09-01T14:12:14.149Z,20.25
2018-09-01T14:14:41.879Z,20.14
2018-09-01T14:17:09.322Z,20.08
2018-09-01T14:19:36.871Z,20.04
2018-09-01T14:22:04.428Z,19.90
2018-09-01T14:24:37.257Z,19.83
2018-09-01T14:27:04.768Z,19.85
2018-09-01T14:29:34.331Z,19.82
2018-09-01T14:32:01.876Z,19.92
2018-09-01T14:34:31.398Z,19.96
2018-09-01T14:36:58.986Z,20.04
2018-09-01T14:39:26.554Z,20.06
2018-09-01T14:41:54.108Z,20.17
2018-09-01T14:44:21.676Z,20.16
2018-09-01T14:46:49.358Z,20.14
2018-09-01T14:49:16.895Z,20.12
2018-09-01T14:51:44.439Z,20.25
2018-09-01T14:54:12.027Z,20.18
2018-09-01T14:56:39.582Z,20.15
2018-09-01T14:59:07.233Z,20.17
2018-09-01T15:01:34.741Z,20.21
2018-09-01T15:04:02.328Z,20.20
2018-09-01T15:06:29.908Z,20.25
2018-09-01T15:08:57.489Z,20.26
2018-09-01T15:11:25.007Z,20.17
2018-09-01T15:13:52.538Z,20.16
2018-09-01T15:16:24.053Z,20.13
2018-09-01T15:18:51.635Z,20.13
2018-09-01T15:21:19.178Z,20.16
2018-09-01T15:23:46.737Z,20.25
2018-09-01T15:26:14.330Z,20.33
2018-09-01T15:28:41.925Z,20.27
2018-09-01T15:31:09.417Z,20.37
2018-09-01T15:33:37.047Z,20.40
2018-09-01T15:36:04.680Z,20.50
2018-09-01T15:38:32.237Z,20.61
2018-09-01T15:40:59.806Z,20.74
2018-09-01T15:43:27.356Z,20.78
2018-09-01T15:45:56.980Z,20.88
2018-09-01T15:48:24.548Z,20.78
2018-09-01T15:50:52.124Z,20.91
2018-09-01T15:53:19.661Z,21.08
2018-09-01T15:55:47.190Z,21.20
2018-09-01T15:58:14.758Z,21.21
2018-09-01T16:00:42.330Z,21.11
2018-09-01T16:03:09.908Z,20.98
2018-09-01T16:05:37.489Z,20.88
2018-09-01T16:08:05.032Z,20.82
2018-09-01T16:10:37.356Z,20.67
2018-09-01T16:13:04.911Z,20.58
2018-09-01T16:15:34.443Z,20.53
2018-09-01T16:18:01.993Z,20.48
2018-09-01T16:20:29.615Z,20.47
2018-09-01T16:22:57.196Z,20.55
2018-09-01T16:25:24.777Z,20.58
2018-09-01T16:27:52.320Z,20.74
2018-09-01T16:30:35.022Z,20.77
2018-09-01T16:33:02.562Z,20.82
2018-09-01T16:35:34.683Z,20.97
2018-09-01T16:38:05.853Z,21.04
2018-09-01T16:40:33.408Z,21.11
2018-09-01T16:43:00.986Z,21.10
2018-09-01T16:45:34.566Z,21.25
2018-09-01T16:48:02.162Z,21.25
2018-09-01T16:50:29.735Z,21.37
2018-09-01T16:52:58.195Z,21.44
2018-09-01T16:55:25.753Z,21.39
2018-09-01T16:57:53.323Z,21.46
2018-09-01T17:00:20.886Z,21.48
2018-09-01T17:02:48.488Z,21.42
2018-09-01T17:05:17.183Z,21.29
2018-09-01T17:07:44.991Z,21.37
2018-09-01T17:10:12.628Z,21.34
2018-09-01T17:12:40.528Z,21.30
2018-09-01T17:15:09.632Z,21.22
2018-09-01T17:17:37.554Z,21.23
2018-09-01T17:20:05.142Z,21.09
2018-09-01T17:22:37.359Z,21.10
2018-09-01T17:25:04.880Z,21.04
2018-09-01T17:27:32.467Z,21.01
2018-09-01T17:30:00.035Z,20.89
2018-09-01T17:32:27.768Z,20.91
2018-09-01T17:34:55.308Z,20.85
2018-09-01T17:37:22.911Z,20.79
2018-09-01T17:39:50.457Z,20.75
2018-09-01T17:42:17.998Z,20.68
2018-09-01T17:44:49.068Z,20.63
2018-09-01T17:47:16.595Z,20.34
2018-09-01T17:49:51.953Z,20.40
2018-09-01T17:52:19.576Z,20.36
2018-09-01T17:54:47.134Z,20.26
2018-09-01T17:57:14.719Z,20.23
2018-09-01T17:59:42.295Z,20.13
2018-09-01T18:02:09.866Z,20.12
2018-09-01T18:04:37.455Z,19.85
2018-09-01T18:07:05.035Z,19.99
2018-09-01T18:09:32.554Z,20.07
2018-09-01T18:12:02.161Z,19.93
2018-09-01T18:14:29.667Z,20.03
2018-09-01T18:16:57.204Z,19.88
2018-09-01T18:19:24.826Z,20.01
2018-09-01T18:21:52.360Z,20.03
2018-09-01T18:24:19.918Z,19.97
2018-09-01T18:26:47.474Z,20.00
2018-09-01T18:29:15.028Z,19.86
2018-09-01T18:31:42.558Z,19.74
2018-09-01T18:34:10.233Z,19.79
2018-09-01T18:36:37.799Z,19.71
2018-09-01T18:39:05.354Z,19.43
2018-09-01T18:41:32.910Z,19.18
2018-09-01T18:44:00.451Z,19.21
2018-09-01T18:46:28.027Z,19.16
2018-09-01T18:48:55.612Z,19.01
2018-09-01T18:51:23.126Z,19.01
2018-09-01T18:53:52.802Z,18.98
2018-09-01T18:56:20.353Z,19.03
2018-09-01T18:58:48.238Z,19.07
2018-09-01T19:01:16.318Z,18.73
2018-09-01T19:03:44.579Z,18.86
2018-09-01T19:06:12.838Z,19.06
2018-09-01T19:08:40.953Z,18.99
2018-09-01T19:11:08.570Z,19.01
2018-09-01T19:13:36.335Z,19.07
2018-09-01T19:16:03.917Z,18.96
2018-09-01T19:18:31.457Z,18.79
2018-09-01T19:20:59.054Z,18.78
2018-09-01T19:23:26.638Z,18.67
2018-09-01T19:25:54.164Z,18.52
2018-09-01T19:28:22.336Z,18.39
2018-09-01T19:30:49.936Z,18.44
2018-09-01T19:33:18.448Z,18.36
2018-09-01T19:35:48.009Z,18.36
2018-09-01T19:38:15.623Z,18.34
2018-09-01T19:40:43.205Z,18.26
2018-09-01T19:43:10.740Z,18.25
2018-09-01T19:45:40.449Z,18.03
2018-09-01T19:48:07.915Z,18.08
2018-09-01T19:50:35.489Z,17.82
2018-09-01T19:53:03.063Z,17.97
2018-09-01T19:55:30.594Z,18.01
2018-09-01T19:57:58.175Z,18.16
2018-09-01T20:00:29.994Z,18.06
2018-09-01T20:02:57.563Z,18.21
2018-09-01T20:05:25.243Z,18.19
2018-09-01T20:07:52.715Z,18.16
2018-09-01T20:10:20.267Z,18.04
2018-09-01T20:12:47.862Z,17.95
2018-09-01T20:15:15.476Z,18.01
2018-09-01T20:17:43.174Z,17.79
2018-09-01T20:20:10.765Z,17.66
2018-09-01T20:22:38.301Z,17.69
2018-09-01T20:25:10.761Z,17.47
2018-09-01T20:27:38.316Z,17.35
2018-09-01T20:30:05.867Z,17.38
2018-09-01T20:32:33.385Z,17.23
2018-09-01T20:35:00.951Z,17.05
2018-09-01T20:37:28.507Z,17.08
2018-09-01T20:39:56.097Z,17.04
2018-09-01T20:42:23.626Z,16.99
2018-09-01T20:44:51.288Z,17.04
2018-09-01T20:47:18.895Z,17.05
2018-09-01T20:49:46.429Z,17.07
2018-09-01T20:52:13.963Z,17.14
2018-09-01T20:54:41.545Z,17.24
2018-09-01T20:57:09.114Z,17.21
2018-09-01T20:59:36.628Z,17.17
2018-09-01T21:02:04.185Z,17.19
2018-09-01T21:04:31.726Z,17.42
2018-09-01T21:06:59.307Z,17.50
2018-09-01T21:09:26.830Z,17.53
2018-09-01T21:11:54.416Z,17.37
2018-09-01T21:14:23.855Z,17.04
2018-09-01T21:16:51.432Z,17.19
2018-09-01T21:19:18.939Z,16.78
2018-09-01T21:21:47.463Z,16.67
2018-09-01T21:24:15.062Z,16.76
2018-09-01T21:26:42.616Z,16.40
2018-09-01T21:29:10.195Z,16.75
2018-09-01T21:31:37.765Z,16.69
2018-09-01T21:34:06.409Z,16.41
2018-09-01T21:36:33.985Z,16.56
2018-09-01T21:39:01.546Z,16.67
2018-09-01T21:41:30.249Z,16.69
2018-09-01T21:43:58.033Z,16.67
2018-09-01T21:46:31.884Z,16.77
2018-09-01T21:48:59.471Z,16.86
2018-09-01T21:51:26.997Z,16.95
2018-09-01T21:53:54.586Z,16.96
2018-09-01T21:56:22.119Z,17.08
2018-09-01T21:58:49.700Z,17.08
2018-09-01T22:01:17.264Z,17.01
2018-09-01T22:03:47.972Z,17.21
2018-09-01T22:06:15.622Z,17.33
2018-09-01T22:08:47.687Z,17.40
2018-09-01T22:11:15.238Z,17.47
2018-09-01T22:13:42.878Z,17.48
2018-09-01T22:16:10.395Z,17.50
2018-09-01T22:18:37.934Z,17.52
2018-09-01T22:21:05.567Z,17.47
2018-09-01T22:23:35.175Z,17.55
2018-09-01T22:26:02.726Z,17.57
2018-09-01T22:28:30.291Z,17.53
2018-09-01T22:30:57.834Z,17.57
2018-09-01T22:33:25.456Z,17.52
2018-09-01T22:35:53.018Z,17.45
2018-09-01T22:38:20.605Z,17.48
2018-09-01T22:40:48.251Z,17.43
2018-09-01T22:43:15.820Z,17.46
2018-09-01T22:45:43.420Z,17.38
2018-09-01T22:48:11.089Z,17.39
2018-09-01T22:50:38.875Z,17.37
2018-09-01T22:53:06.559Z,17.37
2018-09-01T22:55:34.149Z,17.31
2018-09-01T22:58:01.796Z,17.33
2018-09-01T23:00:35.065Z,17.25
2018-09-01T23:03:02.644Z,17.25
2018-09-01T23:05:30.228Z,17.26
2018-09-01T23:08:02.082Z,17.22
2018-09-01T23:10:29.644Z,17.24
2018-09-01T23:12:57.224Z,17.22
2018-09-01T23:15:24.763Z,17.25
2018-09-01T23:17:52.346Z,17.23
2018-09-01T23:20:19.898Z,17.18
2018-09-01T23:22:47.425Z,17.18
2018-09-01T23:25:15.017Z,17.28
2018-09-01T23:27:42.583Z,17.32
2018-09-01T23:30:10.142Z,17.20
2018-09-01T23:32:37.712Z,17.30
2018-09-01T23:35:15.554Z,17.27
2018-09-01T23:37:43.141Z,16.99
2018-09-01T23:40:10.673Z,17.15
2018-09-01T23:42:38.354Z,17.06
2018-09-01T23:45:05.933Z,17.20
2018-09-01T23:47:33.515Z,17.14
2018-09-01T23:50:01.151Z,17.19
2018-09-01T23:52:28.673Z,17.20
2018-09-01T23:54:56.245Z,17.19
2018-09-01T23:57:23.788Z,17.11
2018-09-01T23:59:51.433Z,17.16
